sensor_id;sensor_type;location;lat;lon;timestamp;temperature;humidity
16814;DHT22;8524;57.650;11.926;2022-12-07T00:00:50;-1.00;99.90
16814;DHT22;8524;57.650;11.926;2022-12-07T00:03:17;-1.00;99.90
16814;DHT22;8524;57.650;11.926;2022-12-07T00:05:43;-1.10;99.90
16814;DHT22;8524;57.650;11.926;2022-12-07T00:08:10;-1.10;99.90
16814;DHT22;8524;57.650;11.926;2022-12-07T00:10:37;-1.10;99.90
16814;DHT22;8524;57.650;11.926;2022-12-07T00:13:06;-1.00;99.90
16814;DHT22;8524;57.650;11.926;2022-12-07T00:15:33;-1.00;99.90
16814;DHT22;8524;57.650;11.926;2022-12-07T00:18:01;-1.00;99.90
16814;DHT22;8524;57.650;11.926;2022-12-07T00:20:28;-1.00;99.90
16814;DHT22;8524;57.650;11.926;2022-12-07T00:22:55;-0.90;99.90
16814;DHT22;8524;57.650;11.926;2022-12-07T00:25:22;-0.90;99.90
16814;DHT22;8524;57.650;11.926;2022-12-07T00:27:49;-0.90;99.90
16814;DHT22;8524;57.650;11.926;2022-12-07T00:30:17;-0.80;99.90
16814;DHT22;8524;57.650;11.926;2022-12-07T00:32:44;-0.80;99.90
16814;DHT22;8524;57.650;11.926;2022-12-07T00:35:11;-0.90;99.90
16814;DHT22;8524;57.650;11.926;2022-12-07T00:37:38;-0.90;99.90
16814;DHT22;8524;57.650;11.926;2022-12-07T00:40:06;-0.90;99.90
16814;DHT22;8524;57.650;11.926;2022-12-07T00:42:33;-0.80;99.90
16814;DHT22;8524;57.650;11.926;2022-12-07T00:45:00;-0.90;99.90
16814;DHT22;8524;57.650;11.926;2022-12-07T00:47:28;-0.80;99.90
16814;DHT22;8524;57.650;11.926;2022-12-07T00:49:55;-0.80;99.90
16814;DHT22;8524;57.650;11.926;2022-12-07T00:52:22;-0.80;99.90
16814;DHT22;8524;57.650;11.926;2022-12-07T00:54:49;-0.80;99.90
16814;DHT22;8524;57.650;11.926;2022-12-07T00:57:15;-0.80;99.90
16814;DHT22;8524;57.650;11.926;2022-12-07T00:59:42;-0.80;99.90
16814;DHT22;8524;57.650;11.926;2022-12-07T01:02:09;-0.80;99.90
16814;DHT22;8524;57.650;11.926;2022-12-07T01:04:37;-0.80;99.90
16814;DHT22;8524;57.650;11.926;2022-12-07T01:07:04;-0.80;99.90
16814;DHT22;8524;57.650;11.926;2022-12-07T01:09:31;-0.80;99.90
16814;DHT22;8524;57.650;11.926;2022-12-07T01:11:58;-0.80;99.90
16814;DHT22;8524;57.650;11.926;2022-12-07T01:14:25;-0.80;99.90
16814;DHT22;8524;57.650;11.926;2022-12-07T01:16:52;-0.80;99.90
16814;DHT22;8524;57.650;11.926;2022-12-07T01:19:19;-0.80;99.90
16814;DHT22;8524;57.650;11.926;2022-12-07T01:21:47;-0.70;99.90
16814;DHT22;8524;57.650;11.926;2022-12-07T01:24:14;-0.80;99.90
16814;DHT22;8524;57.650;11.926;2022-12-07T01:26:40;-0.80;99.90
16814;DHT22;8524;57.650;11.926;2022-12-07T01:29:07;-0.80;99.90
16814;DHT22;8524;57.650;11.926;2022-12-07T01:31:34;-0.60;99.90
16814;DHT22;8524;57.650;11.926;2022-12-07T01:34:01;-0.70;99.90
16814;DHT22;8524;57.650;11.926;2022-12-07T01:36:30;-0.80;99.90
16814;DHT22;8524;57.650;11.926;2022-12-07T01:38:59;-0.70;99.90
16814;DHT22;8524;57.650;11.926;2022-12-07T01:41:29;-0.80;99.90
16814;DHT22;8524;57.650;11.926;2022-12-07T01:44:11;-0.70;99.90
16814;DHT22;8524;57.650;11.926;2022-12-07T01:46:39;-0.70;99.90
16814;DHT22;8524;57.650;11.926;2022-12-07T01:49:09;-0.70;99.90
16814;DHT22;8524;57.650;11.926;2022-12-07T01:51:37;-0.70;99.90
16814;DHT22;8524;57.650;11.926;2022-12-07T01:54:07;-0.70;99.90
16814;DHT22;8524;57.650;11.926;2022-12-07T01:56:34;-0.70;99.90
16814;DHT22;8524;57.650;11.926;2022-12-07T01:59:02;-0.70;99.90
16814;DHT22;8524;57.650;11.926;2022-12-07T02:01:29;-0.70;99.90
16814;DHT22;8524;57.650;11.926;2022-12-07T02:03:57;-0.60;99.90
16814;DHT22;8524;57.650;11.926;2022-12-07T02:06:25;-0.60;99.90
16814;DHT22;8524;57.650;11.926;2022-12-07T02:08:53;-0.60;99.90
16814;DHT22;8524;57.650;11.926;2022-12-07T02:11:22;-0.70;99.90
16814;DHT22;8524;57.650;11.926;2022-12-07T02:13:49;-0.70;99.90
16814;DHT22;8524;57.650;11.926;2022-12-07T02:16:25;-0.70;99.90
16814;DHT22;8524;57.650;11.926;2022-12-07T02:19:00;-0.70;99.90
16814;DHT22;8524;57.650;11.926;2022-12-07T02:21:39;-0.70;99.90
16814;DHT22;8524;57.650;11.926;2022-12-07T02:24:29;-0.60;99.90
16814;DHT22;8524;57.650;11.926;2022-12-07T02:30:03;-0.70;99.90
16814;DHT22;8524;57.650;11.926;2022-12-07T02:32:40;-0.60;99.90
16814;DHT22;8524;57.650;11.926;2022-12-07T02:35:11;-0.60;99.90
16814;DHT22;8524;57.650;11.926;2022-12-07T02:37:41;-0.60;99.90
16814;DHT22;8524;57.650;11.926;2022-12-07T02:40:12;-0.60;99.90
16814;DHT22;8524;57.650;11.926;2022-12-07T02:42:46;-0.60;99.90
16814;DHT22;8524;57.650;11.926;2022-12-07T02:45:18;-0.60;99.90
16814;DHT22;8524;57.650;11.926;2022-12-07T02:47:49;-0.50;99.90
16814;DHT22;8524;57.650;11.926;2022-12-07T02:50:18;-0.50;99.90
16814;DHT22;8524;57.650;11.926;2022-12-07T02:52:46;-0.50;99.90
16814;DHT22;8524;57.650;11.926;2022-12-07T02:55:15;-0.50;99.90
16814;DHT22;8524;57.650;11.926;2022-12-07T02:58:01;-0.50;99.90
16814;DHT22;8524;57.650;11.926;2022-12-07T03:00:33;-0.50;99.90
16814;DHT22;8524;57.650;11.926;2022-12-07T03:03:06;-0.50;99.90
16814;DHT22;8524;57.650;11.926;2022-12-07T03:05:59;-0.50;99.90
16814;DHT22;8524;57.650;11.926;2022-12-07T03:08:33;-0.50;99.90
16814;DHT22;8524;57.650;11.926;2022-12-07T03:11:04;-0.30;99.90
16814;DHT22;8524;57.650;11.926;2022-12-07T03:13:36;-0.40;99.90
16814;DHT22;8524;57.650;11.926;2022-12-07T03:16:11;-0.40;99.90
16814;DHT22;8524;57.650;11.926;2022-12-07T03:18:44;-0.50;99.90
16814;DHT22;8524;57.650;11.926;2022-12-07T03:21:15;-0.50;99.90
16814;DHT22;8524;57.650;11.926;2022-12-07T03:23:45;-0.50;99.90
16814;DHT22;8524;57.650;11.926;2022-12-07T03:26:15;-0.50;99.90
16814;DHT22;8524;57.650;11.926;2022-12-07T03:28:47;-0.50;99.90
16814;DHT22;8524;57.650;11.926;2022-12-07T03:31:19;-0.50;99.90
16814;DHT22;8524;57.650;11.926;2022-12-07T03:33:51;-0.50;99.90
16814;DHT22;8524;57.650;11.926;2022-12-07T03:36:22;-0.40;99.90
16814;DHT22;8524;57.650;11.926;2022-12-07T03:38:54;-0.40;99.90
16814;DHT22;8524;57.650;11.926;2022-12-07T03:41:26;-0.40;99.90
16814;DHT22;8524;57.650;11.926;2022-12-07T03:43:55;-0.30;99.90
16814;DHT22;8524;57.650;11.926;2022-12-07T03:46:32;-0.30;99.90
16814;DHT22;8524;57.650;11.926;2022-12-07T03:49:07;-0.30;99.90
16814;DHT22;8524;57.650;11.926;2022-12-07T03:51:40;-0.30;99.90
16814;DHT22;8524;57.650;11.926;2022-12-07T03:54:13;-0.20;99.90
16814;DHT22;8524;57.650;11.926;2022-12-07T03:56:43;-0.20;99.90
16814;DHT22;8524;57.650;11.926;2022-12-07T03:59:11;-0.20;99.90
16814;DHT22;8524;57.650;11.926;2022-12-07T04:01:41;-0.20;99.90
16814;DHT22;8524;57.650;11.926;2022-12-07T04:04:09;-0.20;99.90
16814;DHT22;8524;57.650;11.926;2022-12-07T04:06:35;-0.10;99.90
16814;DHT22;8524;57.650;11.926;2022-12-07T04:09:02;-0.10;99.90
16814;DHT22;8524;57.650;11.926;2022-12-07T04:11:29;0.00;99.90
16814;DHT22;8524;57.650;11.926;2022-12-07T04:13:56;0.00;99.90
16814;DHT22;8524;57.650;11.926;2022-12-07T04:16:42;0.00;99.90
16814;DHT22;8524;57.650;11.926;2022-12-07T04:19:09;0.00;99.90
16814;DHT22;8524;57.650;11.926;2022-12-07T04:21:36;0.10;99.90
16814;DHT22;8524;57.650;11.926;2022-12-07T04:24:03;0.10;99.90
16814;DHT22;8524;57.650;11.926;2022-12-07T04:26:30;0.10;99.90
16814;DHT22;8524;57.650;11.926;2022-12-07T04:28:57;0.10;99.90
16814;DHT22;8524;57.650;11.926;2022-12-07T04:31:24;0.10;99.90
16814;DHT22;8524;57.650;11.926;2022-12-07T04:33:52;0.10;99.90
16814;DHT22;8524;57.650;11.926;2022-12-07T04:36:19;0.10;99.90
16814;DHT22;8524;57.650;11.926;2022-12-07T04:38:47;0.00;99.90
16814;DHT22;8524;57.650;11.926;2022-12-07T04:41:13;0.00;99.90
16814;DHT22;8524;57.650;11.926;2022-12-07T04:43:40;0.10;99.90
16814;DHT22;8524;57.650;11.926;2022-12-07T04:46:07;0.00;99.90
16814;DHT22;8524;57.650;11.926;2022-12-07T04:48:34;0.00;99.90
16814;DHT22;8524;57.650;11.926;2022-12-07T04:51:04;-0.10;99.90
16814;DHT22;8524;57.650;11.926;2022-12-07T04:53:31;-0.10;99.90
16814;DHT22;8524;57.650;11.926;2022-12-07T04:55:58;-0.10;99.90
16814;DHT22;8524;57.650;11.926;2022-12-07T04:58:26;-0.10;99.90
16814;DHT22;8524;57.650;11.926;2022-12-07T05:00:54;-0.10;99.90
16814;DHT22;8524;57.650;11.926;2022-12-07T05:03:21;-0.10;99.90
16814;DHT22;8524;57.650;11.926;2022-12-07T05:05:48;0.00;99.90
16814;DHT22;8524;57.650;11.926;2022-12-07T05:08:17;0.00;99.90
16814;DHT22;8524;57.650;11.926;2022-12-07T05:10:44;-0.10;99.90
16814;DHT22;8524;57.650;11.926;2022-12-07T05:13:10;0.00;99.90
16814;DHT22;8524;57.650;11.926;2022-12-07T05:15:37;0.00;99.90
16814;DHT22;8524;57.650;11.926;2022-12-07T05:18:04;0.10;99.90
16814;DHT22;8524;57.650;11.926;2022-12-07T05:20:31;0.20;99.90
16814;DHT22;8524;57.650;11.926;2022-12-07T05:22:58;0.20;99.90
16814;DHT22;8524;57.650;11.926;2022-12-07T05:25:26;0.20;99.90
16814;DHT22;8524;57.650;11.926;2022-12-07T05:27:55;0.20;99.90
16814;DHT22;8524;57.650;11.926;2022-12-07T05:30:22;0.20;99.90
16814;DHT22;8524;57.650;11.926;2022-12-07T05:32:49;0.20;99.90
16814;DHT22;8524;57.650;11.926;2022-12-07T05:35:16;0.20;99.90
16814;DHT22;8524;57.650;11.926;2022-12-07T05:37:43;0.30;99.90
16814;DHT22;8524;57.650;11.926;2022-12-07T05:40:12;0.40;99.90
16814;DHT22;8524;57.650;11.926;2022-12-07T05:42:40;0.30;99.90
16814;DHT22;8524;57.650;11.926;2022-12-07T05:45:08;0.40;99.90
16814;DHT22;8524;57.650;11.926;2022-12-07T05:47:36;0.40;99.90
16814;DHT22;8524;57.650;11.926;2022-12-07T05:50:05;0.30;99.90
16814;DHT22;8524;57.650;11.926;2022-12-07T05:52:32;0.40;99.90
16814;DHT22;8524;57.650;11.926;2022-12-07T05:54:58;0.40;99.90
16814;DHT22;8524;57.650;11.926;2022-12-07T05:57:25;0.40;99.90
16814;DHT22;8524;57.650;11.926;2022-12-07T05:59:53;0.40;99.90
16814;DHT22;8524;57.650;11.926;2022-12-07T06:02:19;0.30;99.90
16814;DHT22;8524;57.650;11.926;2022-12-07T06:04:46;0.40;99.90
16814;DHT22;8524;57.650;11.926;2022-12-07T06:07:15;0.40;99.90
16814;DHT22;8524;57.650;11.926;2022-12-07T06:09:42;0.40;99.90
16814;DHT22;8524;57.650;11.926;2022-12-07T06:12:10;0.30;99.90
16814;DHT22;8524;57.650;11.926;2022-12-07T06:14:56;0.30;99.90
16814;DHT22;8524;57.650;11.926;2022-12-07T06:17:24;0.30;99.90
16814;DHT22;8524;57.650;11.926;2022-12-07T06:19:51;0.40;99.90
16814;DHT22;8524;57.650;11.926;2022-12-07T06:22:18;0.30;99.90
16814;DHT22;8524;57.650;11.926;2022-12-07T06:24:45;0.30;99.90
16814;DHT22;8524;57.650;11.926;2022-12-07T06:27:12;0.30;99.90
16814;DHT22;8524;57.650;11.926;2022-12-07T06:29:38;0.20;99.90
16814;DHT22;8524;57.650;11.926;2022-12-07T06:32:07;0.20;99.90
16814;DHT22;8524;57.650;11.926;2022-12-07T06:34:34;0.20;99.90
16814;DHT22;8524;57.650;11.926;2022-12-07T06:37:01;0.20;99.90
16814;DHT22;8524;57.650;11.926;2022-12-07T06:39:28;0.20;99.90
16814;DHT22;8524;57.650;11.926;2022-12-07T06:41:56;0.20;99.90
16814;DHT22;8524;57.650;11.926;2022-12-07T06:44:23;0.10;99.90
16814;DHT22;8524;57.650;11.926;2022-12-07T06:46:51;0.20;99.90
16814;DHT22;8524;57.650;11.926;2022-12-07T06:49:19;0.20;99.90
16814;DHT22;8524;57.650;11.926;2022-12-07T06:51:46;0.20;99.90
16814;DHT22;8524;57.650;11.926;2022-12-07T06:54:15;0.20;99.90
16814;DHT22;8524;57.650;11.926;2022-12-07T06:56:42;0.20;99.90
16814;DHT22;8524;57.650;11.926;2022-12-07T06:59:09;0.10;99.90
16814;DHT22;8524;57.650;11.926;2022-12-07T07:01:36;0.10;99.90
16814;DHT22;8524;57.650;11.926;2022-12-07T07:04:03;0.20;99.90
16814;DHT22;8524;57.650;11.926;2022-12-07T07:06:32;0.20;99.90
16814;DHT22;8524;57.650;11.926;2022-12-07T07:08:59;0.10;99.90
16814;DHT22;8524;57.650;11.926;2022-12-07T07:11:26;0.20;99.90
16814;DHT22;8524;57.650;11.926;2022-12-07T07:13:53;0.20;99.90
16814;DHT22;8524;57.650;11.926;2022-12-07T07:16:22;0.20;99.90
16814;DHT22;8524;57.650;11.926;2022-12-07T07:18:49;0.20;99.90
16814;DHT22;8524;57.650;11.926;2022-12-07T07:21:16;0.20;99.90
16814;DHT22;8524;57.650;11.926;2022-12-07T07:23:44;0.30;99.90
16814;DHT22;8524;57.650;11.926;2022-12-07T07:26:11;0.20;99.90
16814;DHT22;8524;57.650;11.926;2022-12-07T07:28:38;0.30;99.90
16814;DHT22;8524;57.650;11.926;2022-12-07T07:31:06;0.30;99.90
16814;DHT22;8524;57.650;11.926;2022-12-07T07:33:33;0.20;99.90
16814;DHT22;8524;57.650;11.926;2022-12-07T07:36:00;0.20;99.90
16814;DHT22;8524;57.650;11.926;2022-12-07T07:38:26;0.20;99.90
16814;DHT22;8524;57.650;11.926;2022-12-07T07:40:55;0.20;99.90
16814;DHT22;8524;57.650;11.926;2022-12-07T07:43:22;0.20;99.90
16814;DHT22;8524;57.650;11.926;2022-12-07T07:45:48;0.30;99.90
16814;DHT22;8524;57.650;11.926;2022-12-07T07:48:16;0.30;99.90
16814;DHT22;8524;57.650;11.926;2022-12-07T07:50:43;0.30;99.90
16814;DHT22;8524;57.650;11.926;2022-12-07T07:53:10;0.30;99.90
16814;DHT22;8524;57.650;11.926;2022-12-07T07:55:37;0.30;99.90
16814;DHT22;8524;57.650;11.926;2022-12-07T07:58:05;0.30;99.90
16814;DHT22;8524;57.650;11.926;2022-12-07T08:00:32;0.40;99.90
16814;DHT22;8524;57.650;11.926;2022-12-07T08:02:59;0.40;99.90
16814;DHT22;8524;57.650;11.926;2022-12-07T08:05:25;0.40;99.90
16814;DHT22;8524;57.650;11.926;2022-12-07T08:07:52;0.30;99.90
16814;DHT22;8524;57.650;11.926;2022-12-07T08:10:19;0.20;99.90
16814;DHT22;8524;57.650;11.926;2022-12-07T08:12:46;0.40;99.90
16814;DHT22;8524;57.650;11.926;2022-12-07T08:15:32;0.50;99.90
16814;DHT22;8524;57.650;11.926;2022-12-07T08:17:59;0.30;99.90
16814;DHT22;8524;57.650;11.926;2022-12-07T08:20:26;0.10;99.90
16814;DHT22;8524;57.650;11.926;2022-12-07T08:22:53;0.00;99.90
16814;DHT22;8524;57.650;11.926;2022-12-07T08:25:20;0.00;99.90
16814;DHT22;8524;57.650;11.926;2022-12-07T08:27:47;0.10;99.90
16814;DHT22;8524;57.650;11.926;2022-12-07T08:30:14;0.00;99.90
16814;DHT22;8524;57.650;11.926;2022-12-07T08:32:44;0.00;99.90
16814;DHT22;8524;57.650;11.926;2022-12-07T08:35:11;0.00;99.90
16814;DHT22;8524;57.650;11.926;2022-12-07T08:37:38;0.10;99.90
16814;DHT22;8524;57.650;11.926;2022-12-07T08:40:07;0.10;99.90
16814;DHT22;8524;57.650;11.926;2022-12-07T08:42:34;0.20;99.90
16814;DHT22;8524;57.650;11.926;2022-12-07T08:45:07;0.10;99.90
16814;DHT22;8524;57.650;11.926;2022-12-07T08:47:35;0.00;99.90
16814;DHT22;8524;57.650;11.926;2022-12-07T08:50:06;-0.10;99.90
16814;DHT22;8524;57.650;11.926;2022-12-07T08:52:34;-0.10;99.90
16814;DHT22;8524;57.650;11.926;2022-12-07T08:55:03;-0.10;99.90
16814;DHT22;8524;57.650;11.926;2022-12-07T08:57:33;-0.10;99.90
16814;DHT22;8524;57.650;11.926;2022-12-07T09:00:02;-0.10;99.90
16814;DHT22;8524;57.650;11.926;2022-12-07T09:02:30;-0.10;99.90
16814;DHT22;8524;57.650;11.926;2022-12-07T09:04:57;-0.10;99.90
16814;DHT22;8524;57.650;11.926;2022-12-07T09:07:26;0.00;99.90
16814;DHT22;8524;57.650;11.926;2022-12-07T09:09:53;-0.10;99.90
16814;DHT22;8524;57.650;11.926;2022-12-07T09:12:20;-0.10;99.90
16814;DHT22;8524;57.650;11.926;2022-12-07T09:14:47;0.00;99.90
16814;DHT22;8524;57.650;11.926;2022-12-07T09:17:14;-0.10;99.90
16814;DHT22;8524;57.650;11.926;2022-12-07T09:19:41;0.00;99.90
16814;DHT22;8524;57.650;11.926;2022-12-07T09:22:08;0.00;99.90
16814;DHT22;8524;57.650;11.926;2022-12-07T09:24:37;0.00;99.90
16814;DHT22;8524;57.650;11.926;2022-12-07T09:27:04;-0.10;99.90
16814;DHT22;8524;57.650;11.926;2022-12-07T09:29:31;-0.20;99.90
16814;DHT22;8524;57.650;11.926;2022-12-07T09:31:58;-0.10;99.90
16814;DHT22;8524;57.650;11.926;2022-12-07T09:34:25;-0.10;99.90
16814;DHT22;8524;57.650;11.926;2022-12-07T09:36:53;-0.10;99.90
16814;DHT22;8524;57.650;11.926;2022-12-07T09:39:20;-0.10;99.90
16814;DHT22;8524;57.650;11.926;2022-12-07T09:41:48;-0.10;99.90
16814;DHT22;8524;57.650;11.926;2022-12-07T09:44:25;-0.10;99.90
16814;DHT22;8524;57.650;11.926;2022-12-07T09:46:53;-0.10;99.90
16814;DHT22;8524;57.650;11.926;2022-12-07T09:49:21;-0.10;99.90
16814;DHT22;8524;57.650;11.926;2022-12-07T09:51:59;0.00;99.90
16814;DHT22;8524;57.650;11.926;2022-12-07T09:54:28;0.00;99.90
16814;DHT22;8524;57.650;11.926;2022-12-07T09:56:56;0.10;99.90
16814;DHT22;8524;57.650;11.926;2022-12-07T09:59:23;0.10;99.90
16814;DHT22;8524;57.650;11.926;2022-12-07T10:01:50;0.10;99.90
16814;DHT22;8524;57.650;11.926;2022-12-07T10:04:19;0.10;99.90
16814;DHT22;8524;57.650;11.926;2022-12-07T10:06:48;0.10;99.90
16814;DHT22;8524;57.650;11.926;2022-12-07T10:09:17;0.00;99.90
16814;DHT22;8524;57.650;11.926;2022-12-07T10:12:07;0.00;99.90
16814;DHT22;8524;57.650;11.926;2022-12-07T10:14:37;0.10;99.90
16814;DHT22;8524;57.650;11.926;2022-12-07T10:17:30;0.20;99.90
16814;DHT22;8524;57.650;11.926;2022-12-07T10:20:16;0.30;99.90
16814;DHT22;8524;57.650;11.926;2022-12-07T10:22:58;0.40;99.90
16814;DHT22;8524;57.650;11.926;2022-12-07T10:25:28;0.30;99.90
16814;DHT22;8524;57.650;11.926;2022-12-07T10:28:00;0.50;99.90
16814;DHT22;8524;57.650;11.926;2022-12-07T10:30:27;0.30;99.90
16814;DHT22;8524;57.650;11.926;2022-12-07T10:32:54;0.30;99.90
16814;DHT22;8524;57.650;11.926;2022-12-07T10:35:24;0.20;99.90
16814;DHT22;8524;57.650;11.926;2022-12-07T10:37:55;0.30;99.90
16814;DHT22;8524;57.650;11.926;2022-12-07T10:40:35;0.40;99.90
16814;DHT22;8524;57.650;11.926;2022-12-07T10:43:17;0.30;99.90
16814;DHT22;8524;57.650;11.926;2022-12-07T10:48:51;0.30;99.90
16814;DHT22;8524;57.650;11.926;2022-12-07T10:51:25;0.40;99.90
16814;DHT22;8524;57.650;11.926;2022-12-07T10:54:04;0.40;99.90
16814;DHT22;8524;57.650;11.926;2022-12-07T10:56:52;0.50;99.90
16814;DHT22;8524;57.650;11.926;2022-12-07T10:59:44;0.30;99.90
16814;DHT22;8524;57.650;11.926;2022-12-07T11:02:25;0.40;99.90
16814;DHT22;8524;57.650;11.926;2022-12-07T11:05:04;0.40;99.90
16814;DHT22;8524;57.650;11.926;2022-12-07T11:07:42;0.30;99.90
16814;DHT22;8524;57.650;11.926;2022-12-07T11:10:14;0.30;99.90
16814;DHT22;8524;57.650;11.926;2022-12-07T11:12:59;0.20;99.90
16814;DHT22;8524;57.650;11.926;2022-12-07T11:15:36;0.20;99.90
16814;DHT22;8524;57.650;11.926;2022-12-07T11:18:10;0.20;99.90
16814;DHT22;8524;57.650;11.926;2022-12-07T11:20:43;0.00;99.90
16814;DHT22;8524;57.650;11.926;2022-12-07T11:23:18;-0.10;99.90
16814;DHT22;8524;57.650;11.926;2022-12-07T11:25:54;-0.10;99.90
16814;DHT22;8524;57.650;11.926;2022-12-07T11:28:36;-0.10;99.90
16814;DHT22;8524;57.650;11.926;2022-12-07T11:31:12;-0.10;99.90
16814;DHT22;8524;57.650;11.926;2022-12-07T11:33:47;-0.30;99.90
16814;DHT22;8524;57.650;11.926;2022-12-07T11:36:32;-0.50;99.90
16814;DHT22;8524;57.650;11.926;2022-12-07T11:39:02;-0.40;99.90
16814;DHT22;8524;57.650;11.926;2022-12-07T11:41:34;-0.60;99.90
16814;DHT22;8524;57.650;11.926;2022-12-07T11:44:06;-0.60;99.90
16814;DHT22;8524;57.650;11.926;2022-12-07T11:46:44;-0.60;99.90
16814;DHT22;8524;57.650;11.926;2022-12-07T11:49:15;-0.70;99.90
16814;DHT22;8524;57.650;11.926;2022-12-07T11:51:50;-0.70;99.90
16814;DHT22;8524;57.650;11.926;2022-12-07T11:54:23;-0.70;99.90
16814;DHT22;8524;57.650;11.926;2022-12-07T11:56:54;-0.80;99.90
16814;DHT22;8524;57.650;11.926;2022-12-07T11:59:28;-0.80;99.90
16814;DHT22;8524;57.650;11.926;2022-12-07T12:02:07;-0.60;99.90
16814;DHT22;8524;57.650;11.926;2022-12-07T12:04:47;-0.50;99.90
16814;DHT22;8524;57.650;11.926;2022-12-07T12:07:19;-0.60;99.90
16814;DHT22;8524;57.650;11.926;2022-12-07T12:09:51;-0.70;99.90
16814;DHT22;8524;57.650;11.926;2022-12-07T12:12:50;-0.80;99.90
16814;DHT22;8524;57.650;11.926;2022-12-07T12:15:28;-0.80;99.90
16814;DHT22;8524;57.650;11.926;2022-12-07T12:20:50;-0.90;99.90
16814;DHT22;8524;57.650;11.926;2022-12-07T12:23:21;-1.00;99.90
16814;DHT22;8524;57.650;11.926;2022-12-07T12:25:51;-0.90;99.90
16814;DHT22;8524;57.650;11.926;2022-12-07T12:28:23;-0.90;99.90
16814;DHT22;8524;57.650;11.926;2022-12-07T12:31:13;-0.90;99.90
16814;DHT22;8524;57.650;11.926;2022-12-07T12:33:46;-0.80;99.90
16814;DHT22;8524;57.650;11.926;2022-12-07T12:36:19;-0.70;99.90
16814;DHT22;8524;57.650;11.926;2022-12-07T12:38:52;-0.80;99.90
16814;DHT22;8524;57.650;11.926;2022-12-07T12:41:54;-0.80;99.90
16814;DHT22;8524;57.650;11.926;2022-12-07T12:45:04;-0.90;99.90
16814;DHT22;8524;57.650;11.926;2022-12-07T12:50:30;-0.90;99.90
16814;DHT22;8524;57.650;11.926;2022-12-07T12:53:16;-0.90;99.90
16814;DHT22;8524;57.650;11.926;2022-12-07T12:56:11;-0.90;99.90
16814;DHT22;8524;57.650;11.926;2022-12-07T12:58:43;-0.90;99.90
16814;DHT22;8524;57.650;11.926;2022-12-07T13:01:45;-0.80;99.90
16814;DHT22;8524;57.650;11.926;2022-12-07T13:04:37;-0.70;99.90
16814;DHT22;8524;57.650;11.926;2022-12-07T13:07:12;-0.70;99.90
16814;DHT22;8524;57.650;11.926;2022-12-07T13:09:43;-0.80;99.90
16814;DHT22;8524;57.650;11.926;2022-12-07T13:12:14;-0.90;99.90
16814;DHT22;8524;57.650;11.926;2022-12-07T13:14:53;-1.00;99.90
16814;DHT22;8524;57.650;11.926;2022-12-07T13:17:55;-1.00;99.90
16814;DHT22;8524;57.650;11.926;2022-12-07T13:20:44;-1.10;99.90
16814;DHT22;8524;57.650;11.926;2022-12-07T13:23:16;-1.20;99.90
16814;DHT22;8524;57.650;11.926;2022-12-07T13:25:51;-1.10;99.90
16814;DHT22;8524;57.650;11.926;2022-12-07T13:28:18;-1.10;99.90
16814;DHT22;8524;57.650;11.926;2022-12-07T13:31:10;-1.20;99.90
16814;DHT22;8524;57.650;11.926;2022-12-07T13:33:37;-1.20;99.90
16814;DHT22;8524;57.650;11.926;2022-12-07T13:36:12;-1.30;99.90
16814;DHT22;8524;57.650;11.926;2022-12-07T13:38:54;-1.30;99.90
16814;DHT22;8524;57.650;11.926;2022-12-07T13:41:23;-1.30;99.90
16814;DHT22;8524;57.650;11.926;2022-12-07T13:43:53;-1.30;99.90
16814;DHT22;8524;57.650;11.926;2022-12-07T13:46:25;-1.30;99.90
16814;DHT22;8524;57.650;11.926;2022-12-07T13:48:53;-1.20;99.90
16814;DHT22;8524;57.650;11.926;2022-12-07T13:51:24;-1.10;99.90
16814;DHT22;8524;57.650;11.926;2022-12-07T13:53:55;-1.30;99.90
16814;DHT22;8524;57.650;11.926;2022-12-07T13:56:26;-1.30;99.90
16814;DHT22;8524;57.650;11.926;2022-12-07T13:58:55;-1.30;99.90
16814;DHT22;8524;57.650;11.926;2022-12-07T14:01:22;-1.30;99.90
16814;DHT22;8524;57.650;11.926;2022-12-07T14:03:49;-1.50;99.90
16814;DHT22;8524;57.650;11.926;2022-12-07T14:06:23;-1.60;99.90
16814;DHT22;8524;57.650;11.926;2022-12-07T14:09:09;-1.60;99.90
16814;DHT22;8524;57.650;11.926;2022-12-07T14:11:37;-1.60;99.90
16814;DHT22;8524;57.650;11.926;2022-12-07T14:14:05;-1.70;99.90
16814;DHT22;8524;57.650;11.926;2022-12-07T14:16:33;-1.70;99.90
16814;DHT22;8524;57.650;11.926;2022-12-07T14:19:03;-1.70;99.90
16814;DHT22;8524;57.650;11.926;2022-12-07T14:21:32;-1.80;99.90
16814;DHT22;8524;57.650;11.926;2022-12-07T14:24:19;-1.90;99.90
16814;DHT22;8524;57.650;11.926;2022-12-07T14:26:47;-1.80;99.90
16814;DHT22;8524;57.650;11.926;2022-12-07T14:29:27;-1.90;99.90
16814;DHT22;8524;57.650;11.926;2022-12-07T14:31:57;-2.00;99.90
16814;DHT22;8524;57.650;11.926;2022-12-07T14:34:25;-2.00;99.90
16814;DHT22;8524;57.650;11.926;2022-12-07T14:36:52;-2.20;99.90
16814;DHT22;8524;57.650;11.926;2022-12-07T14:39:20;-2.20;99.90
16814;DHT22;8524;57.650;11.926;2022-12-07T14:41:47;-2.20;99.90
16814;DHT22;8524;57.650;11.926;2022-12-07T14:44:19;-2.20;99.90
16814;DHT22;8524;57.650;11.926;2022-12-07T14:46:46;-2.30;99.90
16814;DHT22;8524;57.650;11.926;2022-12-07T14:49:13;-2.40;99.90
16814;DHT22;8524;57.650;11.926;2022-12-07T14:51:41;-2.40;99.90
16814;DHT22;8524;57.650;11.926;2022-12-07T14:54:15;-2.50;99.90
16814;DHT22;8524;57.650;11.926;2022-12-07T14:56:44;-2.60;99.90
16814;DHT22;8524;57.650;11.926;2022-12-07T14:59:15;-2.70;99.90
16814;DHT22;8524;57.650;11.926;2022-12-07T15:01:41;-2.70;99.90
16814;DHT22;8524;57.650;11.926;2022-12-07T15:04:08;-2.70;99.90
16814;DHT22;8524;57.650;11.926;2022-12-07T15:06:35;-2.80;99.90
16814;DHT22;8524;57.650;11.926;2022-12-07T15:09:03;-2.90;99.90
16814;DHT22;8524;57.650;11.926;2022-12-07T15:11:30;-2.90;99.90
16814;DHT22;8524;57.650;11.926;2022-12-07T15:13:58;-3.00;99.90
16814;DHT22;8524;57.650;11.926;2022-12-07T15:16:34;-3.00;99.90
16814;DHT22;8524;57.650;11.926;2022-12-07T15:19:01;-3.10;99.90
16814;DHT22;8524;57.650;11.926;2022-12-07T15:21:28;-3.20;99.90
16814;DHT22;8524;57.650;11.926;2022-12-07T15:23:55;-3.20;99.90
16814;DHT22;8524;57.650;11.926;2022-12-07T15:26:22;-3.20;99.90
16814;DHT22;8524;57.650;11.926;2022-12-07T15:28:49;-3.30;99.90
16814;DHT22;8524;57.650;11.926;2022-12-07T15:31:17;-3.40;99.90
16814;DHT22;8524;57.650;11.926;2022-12-07T15:33:44;-3.50;99.90
16814;DHT22;8524;57.650;11.926;2022-12-07T15:36:18;-3.50;99.90
16814;DHT22;8524;57.650;11.926;2022-12-07T15:38:46;-3.50;99.90
16814;DHT22;8524;57.650;11.926;2022-12-07T15:41:13;-3.40;99.90
16814;DHT22;8524;57.650;11.926;2022-12-07T15:43:40;-3.30;99.90
16814;DHT22;8524;57.650;11.926;2022-12-07T15:46:30;-3.40;99.90
16814;DHT22;8524;57.650;11.926;2022-12-07T15:48:57;-3.30;99.90
16814;DHT22;8524;57.650;11.926;2022-12-07T15:51:25;-3.40;99.90
16814;DHT22;8524;57.650;11.926;2022-12-07T15:53:52;-3.50;99.90
16814;DHT22;8524;57.650;11.926;2022-12-07T15:56:19;-3.50;99.90
16814;DHT22;8524;57.650;11.926;2022-12-07T15:58:46;-3.60;99.90
16814;DHT22;8524;57.650;11.926;2022-12-07T16:01:15;-3.70;99.90
16814;DHT22;8524;57.650;11.926;2022-12-07T16:03:44;-3.70;99.90
16814;DHT22;8524;57.650;11.926;2022-12-07T16:06:12;-3.70;99.90
16814;DHT22;8524;57.650;11.926;2022-12-07T16:08:42;-3.80;99.90
16814;DHT22;8524;57.650;11.926;2022-12-07T16:11:10;-3.80;99.90